createdAt,value
2018-11-23T00:01:51.496Z,1.00
2018-11-23T00:04:32.769Z,0.90
2018-11-23T00:07:14.036Z,0.80
2018-11-23T00:09:55.696Z,0.80
2018-11-23T00:12:37.083Z,0.70
2018-11-23T00:15:18.925Z,0.70
2018-11-23T00:18:00.145Z,0.70
2018-11-23T00:20:41.457Z,0.60
2018-11-23T00:23:22.687Z,0.60
2018-11-23T00:26:03.204Z,0.60
2018-11-23T00:28:44.268Z,0.50
2018-11-23T00:31:25.404Z,0.50
2018-11-23T00:34:06.669Z,0.50
2018-11-23T00:36:47.516Z,0.40
2018-11-23T00:39:28.555Z,0.40
2018-11-23T00:42:09.780Z,0.30
2018-11-23T00:44:50.472Z,0.30
2018-11-23T00:47:31.169Z,0.20
2018-11-23T00:50:12.266Z,0.10
2018-11-23T00:52:53.990Z,0.10
2018-11-23T00:55:35.320Z,0.10
2018-11-23T00:58:16.828Z,0.10
2018-11-23T01:00:57.494Z,0.00
2018-11-23T01:03:38.352Z,0.00
2018-11-23T01:06:19.810Z,0.00
2018-11-23T01:09:01.062Z,0.00
2018-11-23T01:11:42.229Z,0.00
2018-11-23T01:14:23.278Z,-0.10
2018-11-23T01:17:04.352Z,-0.10
2018-11-23T01:19:45.037Z,-0.20
2018-11-23T01:22:26.001Z,-0.20
2018-11-23T01:25:07.483Z,-0.20
2018-11-23T01:27:49.869Z,-0.20
2018-11-23T01:30:31.797Z,-0.30
2018-11-23T01:33:13.019Z,-0.30
2018-11-23T01:35:53.864Z,-0.30
2018-11-23T01:38:35.116Z,-0.30
2018-11-23T01:41:15.867Z,-0.30
2018-11-23T01:43:56.753Z,-0.30
2018-11-23T01:46:37.725Z,-0.30
2018-11-23T01:49:19.050Z,-0.30
2018-11-23T01:51:59.912Z,-0.40
2018-11-23T01:54:41.242Z,-0.40
2018-11-23T01:57:22.338Z,-0.40
2018-11-23T02:00:03.765Z,-0.40
2018-11-23T02:02:44.699Z,-0.40
2018-11-23T02:05:25.489Z,-0.40
2018-11-23T02:08:06.578Z,-0.50
2018-11-23T02:10:47.353Z,-0.50
2018-11-23T02:13:28.425Z,-0.50
2018-11-23T02:16:09.472Z,-0.50
2018-11-23T02:18:50.312Z,-0.50
2018-11-23T02:21:31.451Z,-0.50
2018-11-23T02:24:12.675Z,-0.50
2018-11-23T02:26:53.532Z,-0.50
2018-11-23T02:29:34.340Z,-0.50
2018-11-23T02:32:15.666Z,-0.50
2018-11-23T02:34:56.529Z,-0.60
2018-11-23T02:37:38.085Z,-0.60
2018-11-23T02:40:20.051Z,-0.60
2018-11-23T02:43:01.509Z,-0.60
2018-11-23T02:45:43.013Z,-0.70
2018-11-23T02:48:24.487Z,-0.60
2018-11-23T02:51:05.570Z,-0.70
2018-11-23T02:53:46.216Z,-0.70
2018-11-23T02:56:27.170Z,-0.80
2018-11-23T02:59:08.134Z,-0.80
2018-11-23T03:01:48.917Z,-0.80
2018-11-23T03:04:29.448Z,-0.80
2018-11-23T03:07:10.626Z,-0.90
2018-11-23T03:09:51.669Z,-0.90
2018-11-23T03:12:32.540Z,-0.90
2018-11-23T03:15:14.017Z,-0.90
2018-11-23T03:17:55.338Z,-0.90
2018-11-23T03:20:36.358Z,-1.00
2018-11-23T03:23:17.697Z,-1.00
2018-11-23T03:25:58.837Z,-1.00
2018-11-23T03:28:39.958Z,-1.00
2018-11-23T03:31:20.674Z,-1.00
2018-11-23T03:34:02.079Z,-1.00
2018-11-23T03:36:43.208Z,-1.10
2018-11-23T03:39:24.281Z,-1.00
2018-11-23T03:42:05.462Z,-1.00
2018-11-23T03:44:46.909Z,-1.10
2018-11-23T03:47:28.369Z,-1.10
2018-11-23T03:50:10.294Z,-1.10
2018-11-23T03:52:50.826Z,-1.10
2018-11-23T03:55:31.952Z,-1.00
2018-11-23T03:58:11.456Z,-1.10
2018-11-23T04:01:00.058Z,-1.10
2018-11-23T04:03:48.695Z,-1.10
2018-11-23T04:06:37.057Z,-1.10
2018-11-23T04:09:44.473Z,-1.10
2018-11-23T04:12:32.813Z,-1.10
2018-11-23T04:15:21.155Z,-1.10
2018-11-23T04:18:09.781Z,-1.20
2018-11-23T04:21:00.148Z,-1.20
2018-11-23T04:23:48.490Z,-1.30
2018-11-23T04:26:36.853Z,-1.30
2018-11-23T04:29:25.188Z,-1.30
2018-11-23T04:32:13.840Z,-1.30
2018-11-23T04:35:02.186Z,-1.40
2018-11-23T04:37:50.899Z,-1.40
2018-11-23T04:40:39.531Z,-1.40
2018-11-23T04:43:28.192Z,-1.40
2018-11-23T04:46:16.859Z,-1.40
2018-11-23T04:49:05.416Z,-1.40
2018-11-23T04:51:54.121Z,-1.30
2018-11-23T04:54:43.072Z,-1.40
2018-11-23T04:57:31.419Z,-1.40
2018-11-23T05:00:19.779Z,-1.40
2018-11-23T05:03:08.468Z,-1.40
2018-11-23T05:05:56.827Z,-1.40
2018-11-23T05:08:45.169Z,-1.40
2018-11-23T05:11:33.551Z,-1.40
2018-11-23T05:17:30.041Z,-1.50
2018-11-23T05:20:18.707Z,-1.50
2018-11-23T05:23:07.049Z,-1.40
2018-11-23T05:25:55.397Z,-1.40
2018-11-23T05:28:43.739Z,-1.40
2018-11-23T05:31:32.077Z,-1.30
2018-11-23T05:34:21.256Z,-1.20
2018-11-23T05:37:09.620Z,-1.20
2018-11-23T05:39:57.972Z,-1.10
2018-11-23T05:42:46.634Z,-1.10
2018-11-23T05:45:34.965Z,-1.10
2018-11-23T05:48:26.979Z,-1.00
2018-11-23T05:51:12.198Z,-1.00
2018-11-23T05:54:00.923Z,-1.00
2018-11-23T05:56:49.268Z,-0.90
2018-11-23T05:59:37.616Z,-0.90
2018-11-23T06:02:25.973Z,-0.90
2018-11-23T06:05:14.363Z,-0.80
2018-11-23T06:08:03.032Z,-0.80
2018-11-23T06:10:51.696Z,-0.80
2018-11-23T06:13:40.343Z,-0.80
2018-11-23T06:16:28.682Z,-0.80
2018-11-23T06:19:18.032Z,-0.70
2018-11-23T06:22:06.380Z,-0.70
2018-11-23T06:24:54.729Z,-0.70
2018-11-23T06:27:43.093Z,-0.70
2018-11-23T06:30:31.458Z,-0.70
2018-11-23T06:33:40.182Z,-0.70
2018-11-23T06:36:28.517Z,-0.70
2018-11-23T06:39:17.235Z,-0.70
2018-11-23T06:42:06.202Z,-0.60
2018-11-23T06:44:54.554Z,-0.70
2018-11-23T06:47:44.014Z,-0.70
2018-11-23T06:50:32.715Z,-0.60
2018-11-23T06:53:21.063Z,-0.60
2018-11-23T06:56:09.418Z,-0.60
2018-11-23T06:58:50.944Z,-0.60
2018-11-23T07:01:32.167Z,-0.50
2018-11-23T07:04:13.245Z,-0.50
2018-11-23T07:06:54.198Z,-0.50
2018-11-23T07:09:35.201Z,-0.50
2018-11-23T07:12:16.453Z,-0.40
2018-11-23T07:14:56.970Z,-0.40
2018-11-23T07:17:38.010Z,-0.40
2018-11-23T07:20:19.656Z,-0.40
2018-11-23T07:23:00.530Z,-0.30
2018-11-23T07:25:41.357Z,-0.30
2018-11-23T07:28:22.336Z,-0.20
2018-11-23T07:31:02.930Z,-0.10
2018-11-23T07:33:43.834Z,-0.10
2018-11-23T07:36:24.272Z,0.00
2018-11-23T07:39:05.626Z,0.10
2018-11-23T07:41:46.990Z,0.20
2018-11-23T07:44:28.281Z,0.30
2018-11-23T07:47:09.418Z,0.30
2018-11-23T07:49:50.536Z,0.50
2018-11-23T07:52:31.251Z,0.60
2018-11-23T07:55:12.737Z,0.70
2018-11-23T07:57:54.058Z,0.90
2018-11-23T08:00:35.020Z,1.00
2018-11-23T08:03:16.180Z,1.20
2018-11-23T08:05:57.041Z,1.40
2018-11-23T08:08:37.958Z,1.60
2018-11-23T08:11:19.296Z,1.70
2018-11-23T08:14:00.249Z,1.90
2018-11-23T08:16:41.166Z,2.10
2018-11-23T08:19:22.001Z,2.30
2018-11-23T08:22:03.268Z,2.50
2018-11-23T08:24:44.437Z,2.70
2018-11-23T08:27:25.193Z,2.80
2018-11-23T08:30:06.011Z,3.10
2018-11-23T08:32:47.305Z,3.30
2018-11-23T08:35:29.033Z,3.50
2018-11-23T08:38:09.709Z,3.80
2018-11-23T08:40:50.475Z,4.60
2018-11-23T08:43:31.274Z,6.20
2018-11-23T08:46:12.653Z,8.20
2018-11-23T08:48:53.645Z,10.20
2018-11-23T08:51:34.739Z,12.10
2018-11-23T08:54:15.913Z,13.70
2018-11-23T08:56:56.882Z,15.20
2018-11-23T08:59:38.015Z,16.70
2018-11-23T09:02:18.828Z,17.90
2018-11-23T09:05:00.223Z,18.90
2018-11-23T09:07:41.354Z,19.80
2018-11-23T09:10:22.915Z,20.30
2018-11-23T09:13:03.867Z,21.00
2018-11-23T09:15:45.200Z,21.90
2018-11-23T09:18:25.746Z,22.40
2018-11-23T09:21:06.383Z,23.00
2018-11-23T09:23:47.759Z,23.40
2018-11-23T09:26:29.131Z,23.70
2018-11-23T09:29:10.427Z,23.90
2018-11-23T09:31:50.964Z,23.90
2018-11-23T09:34:32.726Z,24.50
2018-11-23T09:37:13.674Z,24.90
2018-11-23T09:39:54.818Z,25.00
2018-11-23T09:42:36.035Z,24.60
2018-11-23T09:45:37.017Z,24.30
2018-11-23T09:48:18.180Z,24.20
2018-11-23T09:50:59.427Z,24.70
2018-11-23T09:53:41.577Z,25.30
2018-11-23T09:56:22.622Z,25.80
2018-11-23T09:59:03.402Z,25.70
2018-11-23T10:01:44.464Z,26.00
2018-11-23T10:04:25.858Z,26.20
2018-11-23T10:07:07.079Z,25.60
2018-11-23T10:09:48.044Z,25.70
2018-11-23T10:12:28.866Z,26.50
2018-11-23T10:15:10.737Z,27.10
2018-11-23T10:17:51.662Z,27.70
2018-11-23T10:20:33.838Z,28.30
2018-11-23T10:23:15.303Z,28.70
2018-11-23T10:25:56.699Z,29.10
2018-11-23T10:28:37.618Z,29.30
2018-11-23T10:31:18.788Z,29.30
2018-11-23T10:33:59.950Z,29.80
2018-11-23T10:36:41.374Z,29.70
2018-11-23T10:39:22.473Z,29.30
2018-11-23T10:42:03.991Z,28.90
2018-11-23T10:44:45.167Z,29.10
2018-11-23T10:47:26.343Z,29.00
2018-11-23T10:50:07.611Z,28.10
2018-11-23T10:52:48.357Z,27.90
2018-11-23T10:55:33.375Z,27.60
2018-11-23T10:58:14.849Z,27.50
2018-11-23T11:04:21.703Z,27.00
2018-11-23T11:07:06.852Z,27.50
2018-11-23T11:09:48.153Z,25.40
2018-11-23T11:12:28.904Z,23.40
2018-11-23T11:15:10.171Z,24.00
2018-11-23T11:17:50.663Z,25.40
2018-11-23T11:20:31.530Z,26.30
2018-11-23T11:23:12.898Z,27.20
2018-11-23T11:25:54.287Z,27.50
2018-11-23T11:28:35.202Z,28.10
2018-11-23T11:31:16.906Z,28.40
2018-11-23T11:33:58.273Z,27.80
2018-11-23T11:36:39.398Z,27.00
2018-11-23T11:39:20.631Z,27.70
2018-11-23T11:42:01.815Z,27.90
2018-11-23T11:44:43.054Z,27.50
2018-11-23T11:47:24.217Z,27.70
2018-11-23T11:50:06.661Z,28.20
2018-11-23T11:52:48.219Z,28.30
2018-11-23T11:55:29.138Z,28.30
2018-11-23T11:58:10.493Z,28.60
2018-11-23T12:00:51.649Z,28.70
2018-11-23T12:03:32.705Z,29.00
2018-11-23T12:06:13.716Z,29.70
2018-11-23T12:08:54.584Z,28.40
2018-11-23T12:11:35.508Z,27.20
2018-11-23T12:14:16.754Z,26.40
2018-11-23T12:16:57.943Z,26.60
2018-11-23T12:19:38.977Z,26.00
2018-11-23T12:22:20.392Z,24.90
2018-11-23T12:25:01.604Z,24.80
2018-11-23T12:27:42.137Z,23.90
2018-11-23T12:30:23.279Z,23.40
2018-11-23T12:33:04.300Z,23.50
2018-11-23T12:35:45.426Z,24.20
2018-11-23T12:38:26.031Z,24.90
2018-11-23T12:41:06.734Z,24.80
2018-11-23T12:43:47.678Z,25.40
2018-11-23T12:46:28.872Z,26.30
2018-11-23T12:49:10.126Z,25.60
2018-11-23T12:51:51.106Z,24.90
2018-11-23T12:54:31.990Z,24.60
2018-11-23T12:57:13.286Z,24.20
2018-11-23T12:59:54.589Z,23.40
2018-11-23T13:02:35.872Z,22.70
2018-11-23T13:05:16.821Z,22.80
2018-11-23T13:07:58.886Z,22.20
2018-11-23T13:10:39.957Z,21.60
2018-11-23T13:13:21.174Z,20.80
2018-11-23T13:16:02.153Z,20.20
2018-11-23T13:18:43.189Z,18.70
2018-11-23T13:21:24.760Z,18.10
2018-11-23T13:24:05.960Z,18.30
2018-11-23T13:26:46.771Z,18.60
2018-11-23T13:29:27.698Z,18.30
2018-11-23T13:32:08.707Z,18.30
2018-11-23T13:34:49.778Z,17.70
2018-11-23T13:37:30.743Z,17.70
2018-11-23T13:40:12.817Z,18.20
2018-11-23T13:42:54.930Z,18.20
2018-11-23T13:45:35.935Z,17.60
2018-11-23T13:48:20.003Z,16.60
2018-11-23T13:50:57.983Z,15.60
2018-11-23T13:53:39.289Z,15.30
2018-11-23T13:56:20.190Z,15.90
2018-11-23T13:59:01.301Z,16.40
2018-11-23T14:01:42.654Z,15.20
2018-11-23T14:04:23.717Z,13.40
2018-11-23T14:07:04.954Z,12.20
2018-11-23T14:09:46.109Z,11.30
2018-11-23T14:12:27.437Z,10.60
2018-11-23T14:15:08.710Z,10.00
2018-11-23T14:17:50.519Z,9.60
2018-11-23T14:20:31.317Z,9.30
2018-11-23T14:23:12.844Z,9.10
2018-11-23T14:25:54.892Z,8.80
2018-11-23T14:28:35.409Z,8.50
2018-11-23T14:31:15.916Z,8.10
2018-11-23T14:33:56.844Z,7.60
2018-11-23T14:36:37.696Z,7.20
2018-11-23T14:39:18.256Z,6.90
2018-11-23T14:41:59.148Z,6.60
2018-11-23T14:44:40.097Z,6.30
2018-11-23T14:47:21.370Z,6.10
2018-11-23T14:50:02.251Z,6.00
2018-11-23T14:52:44.217Z,6.00
2018-11-23T14:55:25.434Z,6.10
2018-11-23T14:58:06.585Z,5.90
2018-11-23T15:00:47.540Z,5.70
2018-11-23T15:03:28.918Z,5.50
2018-11-23T15:06:08.401Z,5.40
2018-11-23T15:12:04.547Z,5.20
2018-11-23T15:14:52.856Z,5.00
2018-11-23T15:17:41.399Z,4.90
2018-11-23T15:20:30.839Z,4.90
2018-11-23T15:23:19.864Z,4.80
2018-11-23T15:26:08.180Z,4.80
2018-11-23T15:28:56.824Z,4.80
2018-11-23T15:31:45.516Z,4.80
2018-11-23T15:34:34.172Z,4.60
2018-11-23T15:37:22.500Z,4.50
2018-11-23T15:40:30.636Z,4.40
2018-11-23T15:43:19.917Z,4.30
2018-11-23T15:46:08.255Z,4.10
2018-11-23T15:48:56.574Z,4.00
2018-11-23T15:51:44.905Z,3.90
2018-11-23T15:54:33.241Z,3.90
2018-11-23T15:57:21.556Z,3.90
2018-11-23T16:00:11.612Z,3.90
2018-11-23T16:02:59.921Z,3.90
2018-11-23T16:05:48.218Z,4.00
2018-11-23T16:08:36.512Z,4.10
2018-11-23T16:11:24.845Z,4.10
2018-11-23T16:14:32.220Z,4.10
2018-11-23T16:17:20.940Z,4.10
2018-11-23T16:20:10.621Z,4.20
2018-11-23T16:23:00.449Z,4.20
2018-11-23T16:25:49.391Z,4.30
2018-11-23T16:28:37.717Z,4.30
2018-11-23T16:31:26.351Z,4.30
2018-11-23T16:34:14.650Z,4.30
2018-11-23T16:37:02.982Z,4.40
2018-11-23T16:39:51.312Z,4.40
2018-11-23T16:42:40.188Z,4.40
2018-11-23T16:45:29.886Z,4.40
2018-11-23T16:48:19.031Z,4.40
2018-11-23T16:51:07.336Z,4.30
2018-11-23T16:53:55.632Z,4.20
2018-11-23T16:57:02.772Z,4.30
2018-11-23T16:59:51.379Z,4.20
2018-11-23T17:02:40.536Z,4.20
2018-11-23T17:05:30.312Z,4.30
2018-11-23T17:08:18.656Z,4.30
2018-11-23T17:11:06.965Z,4.20
2018-11-23T17:13:55.521Z,4.20
2018-11-23T17:16:43.847Z,4.10
2018-11-23T17:19:32.164Z,4.20
2018-11-23T17:22:20.756Z,4.20
2018-11-23T17:25:10.090Z,4.20
2018-11-23T17:27:59.688Z,4.30
2018-11-23T17:30:48.000Z,4.40
2018-11-23T17:33:36.632Z,4.30
2018-11-23T17:36:24.937Z,4.20
2018-11-23T17:39:05.447Z,4.20
2018-11-23T17:41:46.478Z,4.30
2018-11-23T17:44:27.543Z,4.30
2018-11-23T17:47:08.706Z,4.30
2018-11-23T17:49:49.806Z,4.30
2018-11-23T17:52:31.288Z,4.30
2018-11-23T17:55:12.576Z,4.30
2018-11-23T17:57:54.774Z,4.20
2018-11-23T18:00:39.352Z,4.30
2018-11-23T18:03:17.041Z,4.10
2018-11-23T18:05:57.971Z,4.30
2018-11-23T18:08:39.174Z,4.30
2018-11-23T18:11:20.173Z,4.30
2018-11-23T18:14:00.945Z,4.40
2018-11-23T18:16:41.613Z,4.40
2018-11-23T18:19:22.635Z,4.40
2018-11-23T18:22:03.536Z,4.30
2018-11-23T18:24:45.235Z,4.30
2018-11-23T18:27:25.861Z,4.30
2018-11-23T18:30:06.828Z,4.30
2018-11-23T18:32:47.933Z,4.20
2018-11-23T18:35:28.840Z,4.20
2018-11-23T18:38:09.859Z,4.20
2018-11-23T18:41:19.148Z,4.20
2018-11-23T18:43:47.177Z,4.20
2018-11-23T18:46:15.216Z,4.20
2018-11-23T18:48:43.244Z,4.20
2018-11-23T18:51:11.289Z,4.20
2018-11-23T18:53:39.333Z,4.30
2018-11-23T18:56:07.399Z,4.30
2018-11-23T18:58:35.448Z,4.30
2018-11-23T19:01:03.493Z,4.10
2018-11-23T19:03:31.533Z,4.10
2018-11-23T19:05:59.573Z,4.20
2018-11-23T19:08:27.613Z,4.20
2018-11-23T19:10:55.668Z,4.30
2018-11-23T19:13:23.709Z,4.40
2018-11-23T19:15:51.749Z,4.40
2018-11-23T19:18:19.796Z,4.40
2018-11-23T19:20:47.832Z,4.50
2018-11-23T19:23:15.884Z,4.50
2018-11-23T19:25:43.919Z,4.50
2018-11-23T19:28:11.965Z,4.60
2018-11-23T19:30:40.012Z,4.60
2018-11-23T19:33:08.046Z,4.70
2018-11-23T19:35:36.085Z,4.70
2018-11-23T19:38:04.130Z,4.80
2018-11-23T19:40:32.161Z,4.70
2018-11-23T19:43:00.205Z,4.80
2018-11-23T19:45:28.238Z,4.90
2018-11-23T19:47:56.281Z,4.90
2018-11-23T19:50:24.315Z,5.00
2018-11-23T19:52:52.360Z,5.00
2018-11-23T19:55:20.392Z,5.10
2018-11-23T19:57:48.536Z,5.00
2018-11-23T20:00:23.656Z,5.10
2018-11-23T20:02:51.722Z,5.10
2018-11-23T20:05:19.777Z,5.10
2018-11-23T20:07:49.148Z,5.10
2018-11-23T20:10:18.040Z,5.10
2018-11-23T20:12:46.957Z,5.10
2018-11-23T20:15:16.269Z,5.20
2018-11-23T20:17:44.356Z,5.20
2018-11-23T20:20:14.476Z,5.30
2018-11-23T20:22:42.744Z,5.30
2018-11-23T20:25:13.719Z,5.20
2018-11-23T20:27:41.766Z,5.20
2018-11-23T20:30:12.045Z,5.30
2018-11-23T20:32:40.221Z,5.20
2018-11-23T20:35:09.751Z,5.20
2018-11-23T20:37:37.798Z,5.20
2018-11-23T20:40:10.420Z,5.10
2018-11-23T20:42:38.629Z,5.10
2018-11-23T20:45:08.443Z,5.10
2018-11-23T20:47:36.697Z,5.10
2018-11-23T20:50:06.449Z,5.20
2018-11-23T20:52:34.497Z,5.30
2018-11-23T20:55:02.676Z,5.40
2018-11-23T20:57:30.714Z,5.30
2018-11-23T20:59:58.869Z,5.30
2018-11-23T21:02:26.894Z,5.40
2018-11-23T21:04:54.912Z,5.40
2018-11-23T21:07:22.941Z,5.50
2018-11-23T21:09:51.182Z,5.50
2018-11-23T21:12:19.205Z,5.60
2018-11-23T21:14:47.231Z,5.50
2018-11-23T21:17:15.261Z,5.50
2018-11-23T21:19:43.276Z,5.50
2018-11-23T21:22:11.311Z,5.60
2018-11-23T21:24:39.328Z,5.60
2018-11-23T21:27:07.444Z,5.50
2018-11-23T21:29:35.457Z,5.60
2018-11-23T21:32:03.505Z,5.50
2018-11-23T21:34:31.529Z,5.50
2018-11-23T21:36:59.553Z,5.60
2018-11-23T21:39:27.581Z,5.60
2018-11-23T21:41:55.593Z,5.50
2018-11-23T21:44:23.617Z,5.60
2018-11-23T21:46:51.645Z,5.60
2018-11-23T21:49:19.676Z,5.50
2018-11-23T21:51:47.684Z,5.50
2018-11-23T21:54:15.721Z,5.50
2018-11-23T21:56:43.756Z,5.60
2018-11-23T21:59:11.805Z,5.60
2018-11-23T22:01:39.829Z,5.60
2018-11-23T22:04:07.849Z,5.60
2018-11-23T22:06:35.881Z,5.50
2018-11-23T22:09:05.989Z,5.60
2018-11-23T22:11:34.008Z,5.60
2018-11-23T22:14:02.041Z,5.50
2018-11-23T22:16:30.088Z,5.60
2018-11-23T22:18:58.108Z,5.60
2018-11-23T22:21:26.121Z,5.60
2018-11-23T22:23:57.091Z,5.60
2018-11-23T22:26:22.164Z,5.60
2018-11-23T22:28:50.189Z,5.60
2018-11-23T22:31:18.204Z,5.70
2018-11-23T22:33:46.279Z,5.60
2018-11-23T22:36:14.289Z,5.70
2018-11-23T22:38:42.315Z,5.70
2018-11-23T22:41:10.335Z,5.70
2018-11-23T22:43:38.353Z,5.70
2018-11-23T22:46:06.383Z,5.70
2018-11-23T22:48:34.388Z,5.70
2018-11-23T22:51:02.417Z,5.60
2018-11-23T22:53:30.428Z,5.60
2018-11-23T22:55:58.456Z,5.60
2018-11-23T22:58:26.477Z,5.60
2018-11-23T23:01:00.054Z,5.60
2018-11-23T23:03:28.049Z,5.60
2018-11-23T23:05:56.081Z,5.50
2018-11-23T23:08:24.105Z,5.60
2018-11-23T23:10:52.133Z,5.60
2018-11-23T23:13:20.154Z,5.60
2018-11-23T23:15:48.186Z,5.60
2018-11-23T23:18:16.202Z,5.60
2018-11-23T23:20:44.228Z,5.60
2018-11-23T23:23:12.239Z,5.60
2018-11-23T23:25:40.272Z,5.60
2018-11-23T23:28:08.297Z,5.70
2018-11-23T23:30:37.437Z,5.70
2018-11-23T23:33:04.336Z,5.70
2018-11-23T23:35:32.373Z,5.70
2018-11-23T23:38:00.377Z,5.70
2018-11-23T23:40:28.409Z,5.70
2018-11-23T23:42:56.433Z,5.70
2018-11-23T23:45:24.457Z,5.70
2018-11-23T23:47:52.482Z,5.60
2018-11-23T23:50:21.251Z,5.70
2018-11-23T23:52:49.952Z,5.60
2018-11-23T23:55:17.967Z,5.60
2018-11-23T23:57:46.637Z,5.60
